Time;durP1;ratioP1;P1;durP2;ratioP2;P2;SDS_P1;SDS_P2;PMS_P1;PMS_P2;Temp;Humidity;BMP_temperature;BMP_pressure;BME280_temperature;BME280_humidity;BME280_pressure;Samples;Min_cycle;Max_cycle;Signal;HPM_P1;HPM_P2
2022/05/13 00:02:26;;;;;;;15.63;11.53;;;;;;;16.68;72.07;100033.87;1729731;81;21047;-76
2022/05/13 00:04:53;;;;;;;13.08;10.85;;;;;;;16.66;72.01;100031.38;1788501;78;20947;-75
2022/05/13 00:07:20;;;;;;;18.32;11.35;;;;;;;16.64;71.97;100036.56;1775001;78;21347;-75
2022/05/13 00:09:56;;;;;;;15.20;11.33;;;;;;;16.63;71.81;100037.06;1786038;78;22521;-76
2022/05/13 00:12:24;;;;;;;17.42;11.80;;;;;;;16.59;71.75;100037.88;1730545;80;21366;-75
2022/05/13 00:14:51;;;;;;;17.00;11.95;;;;;;;16.54;71.80;100011.41;1735512;80;21002;-75
2022/05/13 00:17:18;;;;;;;14.70;12.13;;;;;;;16.51;71.92;100015.76;1750625;80;20960;-75
2022/05/13 00:19:45;;;;;;;15.95;12.07;;;;;;;16.48;72.00;100020.91;1756949;80;21559;-76
2022/05/13 00:22:12;;;;;;;16.90;12.07;;;;;;;16.46;71.74;100021.58;1749273;80;22059;-76
2022/05/13 00:24:40;;;;;;;15.78;12.47;;;;;;;16.45;71.47;100017.25;1785097;79;20901;-76
2022/05/13 00:27:07;;;;;;;17.55;12.10;;;;;;;16.43;71.26;100021.92;1772706;79;21099;-76
2022/05/13 00:29:34;;;;;;;16.23;11.93;;;;;;;16.40;71.04;100020.91;1780612;79;21089;-75
2022/05/13 00:32:01;;;;;;;14.75;12.50;;;;;;;16.39;70.86;100014.41;1760081;79;21467;-75
2022/05/13 00:34:29;;;;;;;18.02;12.33;;;;;;;16.35;71.07;100011.77;1749500;80;22446;-75
2022/05/13 00:36:56;;;;;;;16.73;11.48;;;;;;;16.29;71.34;100019.91;1758179;80;21049;-75
2022/05/13 00:39:23;;;;;;;19.30;12.05;;;;;;;16.22;71.24;100018.94;1754031;80;21087;-76
2022/05/13 00:41:50;;;;;;;15.68;12.13;;;;;;;16.16;71.16;100016.44;1767036;79;20931;-75
2022/05/13 00:44:17;;;;;;;16.87;12.55;;;;;;;16.11;71.05;100015.25;1773136;78;21360;-76
2022/05/13 00:46:45;;;;;;;21.42;13.08;;;;;;;16.09;71.16;100011.92;1780507;78;21833;-75
2022/05/13 00:49:13;;;;;;;16.62;12.45;;;;;;;16.10;71.08;100011.75;1766560;78;21003;-75
2022/05/13 00:51:47;;;;;;;14.53;11.93;;;;;;;16.11;71.00;100012.59;1755500;78;20956;-75
2022/05/13 00:54:15;;;;;;;14.83;12.25;;;;;;;16.06;70.81;100012.27;1750253;80;20943;-75
2022/05/13 00:56:44;;;;;;;16.80;12.37;;;;;;;16.00;70.71;100015.91;1741374;80;21104;-75
2022/05/13 00:59:16;;;;;;;16.00;12.65;;;;;;;15.96;70.58;100021.25;1764659;80;22569;-75
2022/05/13 01:01:43;;;;;;;18.55;13.45;;;;;;;15.89;70.55;100021.56;1750764;80;20938;-75
2022/05/13 01:04:13;;;;;;;17.12;13.90;;;;;;;15.85;70.55;100022.08;1765238;80;20971;-75
2022/05/13 01:06:50;;;;;;;18.50;14.70;;;;;;;15.83;70.47;100021.41;1768376;80;21000;-74
2022/05/13 01:09:18;;;;;;;18.00;14.35;;;;;;;15.81;70.88;100017.55;1737391;82;21100;-76
2022/05/13 01:11:48;;;;;;;20.62;15.58;;;;;;;15.83;70.83;100012.92;1737172;80;21827;-75
2022/05/13 01:14:20;;;;;;;20.92;15.70;;;;;;;15.85;70.94;100014.09;1751033;79;21041;-76
2022/05/13 01:19:33;;;;;;;18.77;14.73;;;;;;;15.75;70.85;100014.23;1759482;80;20977;-75
2022/05/13 01:22:15;;;;;;;20.70;15.08;;;;;;;15.71;70.75;100012.38;1770519;80;21349;-75
2022/05/13 01:24:42;;;;;;;19.45;15.08;;;;;;;15.69;70.90;100014.38;1769559;80;22574;-75
2022/05/13 01:27:10;;;;;;;21.75;15.60;;;;;;;15.66;70.82;100021.88;1766971;80;20982;-75
2022/05/13 01:29:37;;;;;;;20.32;16.15;;;;;;;15.65;70.81;100022.88;1757847;80;21010;-75
2022/05/13 01:32:05;;;;;;;19.92;15.78;;;;;;;15.63;71.03;100022.17;1766561;80;21054;-75
2022/05/13 01:34:32;;;;;;;20.10;16.82;;;;;;;15.57;71.28;100014.83;1771376;80;20939;-74
2022/05/13 01:36:59;;;;;;;20.88;15.95;;;;;;;15.53;71.50;100021.45;1768478;80;22450;-75
2022/05/13 01:39:26;;;;;;;21.00;16.42;;;;;;;15.51;71.50;100020.29;1761155;80;21083;-75
2022/05/13 01:41:53;;;;;;;20.12;17.10;;;;;;;15.47;71.50;100016.30;1757320;80;20998;-75
2022/05/13 01:44:20;;;;;;;93.15;21.95;;;;;;;15.43;71.43;100026.41;1770530;80;21525;-75
2022/05/13 01:46:48;;;;;;;87.72;24.63;;;;;;;15.41;71.47;100032.41;1758614;80;20994;-75
2022/05/13 01:49:15;;;;;;;36.73;22.67;;;;;;;15.34;71.68;100031.38;1740752;80;21792;-75
2022/05/13 01:51:42;;;;;;;30.45;21.37;;;;;;;15.27;72.00;100033.03;1715602;82;21006;-75
2022/05/13 01:54:09;;;;;;;25.77;21.37;;;;;;;15.22;72.23;100037.98;1760453;79;20997;-75
2022/05/13 01:56:37;;;;;;;26.87;20.05;;;;;;;15.18;72.49;100047.29;1755300;80;21004;-75
2022/05/13 01:59:04;;;;;;;21.82;17.92;;;;;;;15.11;72.65;100047.08;1743395;80;21007;-75
2022/05/13 02:01:31;;;;;;;22.05;17.52;;;;;;;15.05;72.79;100049.53;1741319;80;22563;-74
2022/05/13 02:03:58;;;;;;;17.98;16.05;;;;;;;15.01;72.83;100060.16;1778883;80;20993;-75
2022/05/13 02:06:26;;;;;;;17.57;15.63;;;;;;;14.97;72.97;100057.49;1770944;80;21496;-76
2022/05/13 02:08:55;;;;;;;17.07;15.28;;;;;;;14.94;72.99;100059.95;1745937;80;20972;-75
2022/05/13 02:11:23;;;;;;;18.30;16.10;;;;;;;14.95;73.03;100062.95;1736857;80;21530;-75
2022/05/13 02:13:51;;;;;;;16.62;14.87;;;;;;;14.96;73.06;100059.78;1745332;80;22234;-76
2022/05/13 02:16:19;;;;;;;16.35;14.65;;;;;;;14.97;73.16;100059.66;1740901;79;21004;-75
2022/05/13 02:18:46;;;;;;;17.48;15.65;;;;;;;14.98;73.11;100052.52;1763472;79;21094;-76
2022/05/13 02:21:13;;;;;;;16.55;14.65;;;;;;;14.98;73.14;100052.02;1742339;79;20972;-75
2022/05/13 02:23:40;;;;;;;16.93;14.87;;;;;;;14.96;73.08;100059.32;1750765;79;20980;-75
2022/05/13 02:26:11;;;;;;;16.87;14.73;;;;;;;14.91;73.00;100062.10;1743683;79;22447;-75
2022/05/13 02:28:38;;;;;;;16.87;14.75;;;;;;;14.81;73.08;100073.67;1761005;79;21007;-76
2022/05/13 02:31:06;;;;;;;17.65;14.63;;;;;;;14.78;73.31;100075.33;1762933;79;21051;-76
2022/05/13 02:33:33;;;;;;;15.78;13.78;;;;;;;14.75;73.44;100082.27;1749415;79;21288;-76
2022/05/13 02:36:00;;;;;;;18.98;11.80;;;;;;;14.72;73.78;100106.52;1752608;79;20992;-76
2022/05/13 02:38:27;;;;;;;16.97;10.43;;;;;;;14.68;74.39;100113.64;1752112;79;21229;-76
2022/05/13 02:41:13;;;;;;;17.65;10.78;;;;;;;14.75;76.03;100118.16;1754674;79;21759;-75
2022/05/13 02:43:50;;;;;;;16.07;11.40;;;;;;;14.88;76.70;100119.94;1742068;79;21070;-75
2022/05/13 02:46:20;;;;;;;17.42;11.53;;;;;;;15.00;77.10;100125.82;1757782;79;21066;-75
2022/05/13 02:48:48;;;;;;;15.68;11.48;;;;;;;15.10;77.30;100124.39;1755448;79;21062;-76
2022/05/13 02:51:15;;;;;;;17.32;11.85;;;;;;;15.18;77.36;100121.78;1743568;79;21691;-76
2022/05/13 02:53:42;;;;;;;16.85;12.63;;;;;;;15.22;77.48;100129.77;1755809;79;21033;-76
2022/05/13 02:56:09;;;;;;;19.73;12.88;;;;;;;15.28;77.55;100138.47;1761286;79;21029;-75
2022/05/13 02:58:36;;;;;;;19.82;12.82;;;;;;;15.33;77.60;100142.80;1759580;80;21052;-76
2022/05/13 03:01:04;;;;;;;19.32;11.75;;;;;;;15.38;77.56;100139.69;1764022;80;21009;-76
2022/05/13 03:03:33;;;;;;;20.25;11.53;;;;;;;15.39;77.22;100142.18;1758633;79;21849;-76
2022/05/13 03:06:00;;;;;;;16.15;11.33;;;;;;;15.40;77.00;100151.83;1766179;79;21001;-76
2022/05/13 03:08:27;;;;;;;16.40;10.78;;;;;;;15.42;76.68;100154.33;1762854;79;21568;-76
2022/05/13 03:10:56;;;;;;;14.13;9.55;;;;;;;15.41;76.35;100158.81;1759704;79;21065;-76
2022/05/13 03:13:23;;;;;;;15.35;8.50;;;;;;;15.41;75.94;100156.16;1754239;79;20962;-76
2022/05/13 03:15:50;;;;;;;10.48;7.22;;;;;;;15.39;74.90;100162.14;1748941;79;22439;-76
2022/05/13 03:18:17;;;;;;;12.98;6.72;;;;;;;15.34;73.42;100164.92;1750094;80;21073;-75
2022/05/13 03:20:44;;;;;;;8.75;5.47;;;;;;;15.26;72.51;100167.56;1763562;79;21013;-75
2022/05/13 03:23:11;;;;;;;8.58;5.30;;;;;;;15.19;71.41;100172.67;1764913;79;21029;-76
2022/05/13 03:25:38;;;;;;;12.90;4.80;;;;;;;15.12;69.97;100174.27;1755430;79;21074;-75
2022/05/13 03:28:06;;;;;;;7.17;4.58;;;;;;;15.05;69.28;100184.69;1750783;79;21821;-76
2022/05/13 03:30:33;;;;;;;8.33;4.10;;;;;;;15.05;68.57;100184.69;1756093;79;21021;-76
2022/05/13 03:33:00;;;;;;;7.95;4.20;;;;;;;15.05;68.19;100194.50;1759522;79;21014;-75
2022/05/13 03:35:27;;;;;;;8.25;3.52;;;;;;;15.03;67.75;100194.66;1755762;79;21056;-76
2022/05/13 03:37:54;;;;;;;7.83;3.50;;;;;;;15.01;67.07;100189.98;1762214;79;20978;-76
2022/05/13 03:40:22;;;;;;;13.43;4.00;;;;;;;15.02;66.61;100177.52;1762046;79;21834;-76
2022/05/13 03:42:49;;;;;;;5.28;3.58;;;;;;;14.99;65.72;100191.14;1763831;80;20933;-76
2022/05/13 03:45:18;;;;;;;8.38;3.95;;;;;;;14.95;65.34;100183.12;1755267;79;21071;-77
2022/05/13 03:47:45;;;;;;;5.12;3.58;;;;;;;14.94;65.57;100189.42;1757348;79;21666;-77
2022/05/13 03:50:12;;;;;;;7.45;3.85;;;;;;;14.97;65.70;100203.77;1763104;80;21123;-77
2022/05/13 03:52:39;;;;;;;6.37;3.65;;;;;;;15.01;65.77;100202.45;1776205;80;22374;-76
2022/05/13 03:55:07;;;;;;;9.05;4.00;;;;;;;15.03;65.63;100199.98;1733820;81;21011;-76
2022/05/13 03:57:34;;;;;;;6.90;3.70;;;;;;;15.10;65.47;100205.52;1735863;81;21427;-76
2022/05/13 04:00:03;;;;;;;10.25;4.00;;;;;;;15.13;65.16;100214.02;1735291;81;21055;-76
2022/05/13 04:02:31;;;;;;;8.23;3.77;;;;;;;15.16;64.92;100211.56;1733934;81;21351;-77
2022/05/13 04:10:30;;;;;;;9.08;4.20;;;;;;;15.24;64.36;100221.41;1716189;81;21435;-76
2022/05/13 04:18:29;;;;;;;9.30;4.00;;;;;;;15.35;63.83;100221.17;1758232;80;22480;-76
2022/05/13 04:20:56;;;;;;;5.53;3.60;;;;;;;15.40;63.92;100214.88;1755908;80;20992;-76
2022/05/13 04:23:23;;;;;;;9.70;4.30;;;;;;;15.42;63.50;100215.55;1755134;80;20961;-76
2022/05/13 04:25:50;;;;;;;9.88;3.37;;;;;;;15.41;63.56;100221.86;1743458;80;21028;-77
2022/05/13 04:28:17;;;;;;;7.33;3.35;;;;;;;15.38;62.99;100221.69;1755706;80;21017;-77
2022/05/13 04:30:45;;;;;;;5.30;3.25;;;;;;;15.38;62.84;100229.67;1754888;80;22332;-77
2022/05/13 04:33:13;;;;;;;4.33;3.05;;;;;;;15.43;62.86;100231.34;1749799;80;21083;-77
2022/05/13 04:35:40;;;;;;;7.15;2.75;;;;;;;15.45;62.51;100240.54;1736358;80;21388;-77
2022/05/13 04:38:08;;;;;;;5.92;2.60;;;;;;;15.46;62.00;100247.03;1734756;80;21048;-77
2022/05/13 04:40:35;;;;;;;8.18;2.72;;;;;;;15.43;61.60;100246.48;1727413;81;20877;-77
2022/05/13 04:43:03;;;;;;;5.33;2.30;;;;;;;15.40;60.97;100254.30;1725288;81;20948;-76
2022/05/13 04:45:32;;;;;;;4.55;2.10;;;;;;;15.36;60.27;100250.29;1715342;81;21051;-75
2022/05/13 04:48:21;;;;;;;11.78;2.30;;;;;;;15.32;60.11;100252.91;1714872;81;21112;-76
2022/05/13 04:51:00;;;;;;;3.80;2.17;;;;;;;15.28;60.44;100259.54;1742254;80;21399;-75
2022/05/13 04:53:33;;;;;;;7.47;2.00;;;;;;;15.30;60.91;100259.38;1728711;80;21075;-75
2022/05/13 04:56:01;;;;;;;8.10;1.80;;;;;;;15.30;60.42;100252.23;1748112;80;22545;-76
2022/05/13 04:58:28;;;;;;;4.37;1.90;;;;;;;15.30;60.24;100256.72;1784199;79;21036;-75
2022/05/13 05:00:57;;;;;;;4.17;1.70;;;;;;;15.28;59.97;100268.85;1785814;79;20986;-76
2022/05/13 05:03:27;;;;;;;4.10;1.77;;;;;;;15.31;59.86;100267.70;1784391;79;21059;-76
2022/05/13 05:05:54;;;;;;;5.40;1.60;;;;;;;15.32;59.65;100268.87;1746414;80;20961;-76
2022/05/13 05:08:22;;;;;;;5.33;1.40;;;;;;;15.33;59.15;100269.20;1758323;80;20997;-75
2022/05/13 05:10:50;;;;;;;3.60;1.67;;;;;;;15.36;58.79;100267.59;1788700;79;21426;-77
2022/05/13 05:13:20;;;;;;;2.25;1.20;;;;;;;15.43;58.69;100267.78;1775110;78;20980;-77
2022/05/13 05:15:48;;;;;;;4.08;1.50;;;;;;;15.46;57.61;100269.66;1781245;80;21058;-77
2022/05/13 05:18:14;;;;;;;3.60;1.30;;;;;;;15.51;57.72;100260.35;1785762;80;20931;-77
2022/05/13 05:20:42;;;;;;;5.35;1.40;;;;;;;15.54;57.41;100264.02;1789154;79;23001;-79
2022/05/13 05:23:19;;;;;;;4.10;1.10;;;;;;;15.52;56.50;100263.35;1779779;80;20980;-77
2022/05/13 05:25:46;;;;;;;2.62;1.10;;;;;;;15.51;55.83;100267.01;1771971;79;21538;-78
2022/05/13 05:28:13;;;;;;;3.27;1.40;;;;;;;15.49;54.89;100270.33;1786002;78;20970;-77
2022/05/13 05:30:40;;;;;;;3.90;0.90;;;;;;;15.51;55.29;100282.98;1786371;80;21474;-79
2022/05/13 05:33:07;;;;;;;1.20;0.90;;;;;;;15.57;55.38;100282.37;1781426;79;22481;-77
2022/05/13 05:35:35;;;;;;;2.37;0.80;;;;;;;15.64;54.46;100290.95;1785216;80;20932;-78
2022/05/13 05:38:02;;;;;;;3.87;0.85;;;;;;;15.70;53.85;100297.45;1774520;79;21449;-77
2022/05/13 05:40:30;;;;;;;2.22;0.88;;;;;;;15.76;53.86;100292.01;1763547;80;21064;-78
2022/05/13 05:43:01;;;;;;;1.15;0.62;;;;;;;15.83;53.39;100290.39;1785974;79;21015;-78
2022/05/13 05:45:28;;;;;;;5.12;0.70;;;;;;;15.84;51.84;100298.22;1756618;80;21798;-76
2022/05/13 05:47:55;;;;;;;4.12;0.70;;;;;;;15.85;52.28;100299.89;1767869;80;20924;-77
2022/05/13 05:50:22;;;;;;;2.42;0.95;;;;;;;15.92;51.69;100302.73;1758176;80;20994;-76
2022/05/13 05:52:50;;;;;;;1.60;0.68;;;;;;;15.94;51.87;100296.28;1786169;80;20945;-76
2022/05/13 05:58:09;;;;;;;1.12;0.65;;;;;;;16.07;52.00;100287.01;1756643;80;21784;-75
2022/05/13 06:00:41;;;;;;;2.98;0.70;;;;;;;16.15;51.06;100291.88;1780520;80;20976;-76
2022/05/13 06:03:09;;;;;;;2.12;0.60;;;;;;;16.21;50.93;100291.72;1770013;80;21510;-77
2022/05/13 06:05:36;;;;;;;1.12;0.70;;;;;;;16.30;50.87;100289.44;1777631;80;21181;-77
2022/05/13 06:08:03;;;;;;;3.15;0.72;;;;;;;16.34;49.55;100294.80;1786493;80;20964;-78
2022/05/13 06:10:31;;;;;;;1.90;0.60;;;;;;;16.35;49.55;100299.62;1782868;79;21787;-80
2022/05/13 06:12:59;;;;;;;2.27;0.70;;;;;;;16.39;49.08;100297.80;1765211;80;20997;-80
2022/05/13 06:15:26;;;;;;;2.50;0.50;;;;;;;16.43;49.35;100301.83;1772968;80;21027;-78
2022/05/13 06:17:55;;;;;;;3.08;0.70;;;;;;;16.45;48.36;100299.83;1783550;80;21070;-79
2022/05/13 06:20:25;;;;;;;3.90;0.60;;;;;;;16.50;48.62;100293.53;1782751;80;20980;-76
2022/05/13 06:22:52;;;;;;;2.47;0.60;;;;;;;16.54;47.78;100293.53;1775974;80;21354;-77
2022/05/13 06:25:19;;;;;;;0.65;0.50;;;;;;;16.57;47.59;100293.70;1779705;80;21569;-77
2022/05/13 06:27:48;;;;;;;4.58;0.70;;;;;;;16.64;47.86;100305.39;1794811;79;21024;-78
2022/05/13 06:30:27;;;;;;;2.00;0.60;;;;;;;16.71;47.83;100302.45;1795852;79;20921;-77
2022/05/13 06:32:54;;;;;;;0.90;0.50;;;;;;;16.78;47.64;100303.44;1766701;80;20969;-78
2022/05/13 06:35:23;;;;;;;3.10;0.60;;;;;;;16.84;47.29;100313.47;1773549;80;21700;-78
2022/05/13 06:37:51;;;;;;;2.25;0.60;;;;;;;16.92;46.66;100321.16;1784158;80;20972;-79
2022/05/13 06:40:18;;;;;;;3.50;0.50;;;;;;;16.89;46.57;100321.00;1783705;80;21031;-78
2022/05/13 06:42:46;;;;;;;1.67;0.55;;;;;;;16.87;46.68;100324.30;1782892;80;21045;-78
2022/05/13 06:45:12;;;;;;;3.10;0.68;;;;;;;16.85;46.41;100325.80;1783675;79;20921;-78
2022/05/13 06:47:40;;;;;;;2.20;0.50;;;;;;;16.90;46.93;100322.66;1780422;80;21927;-76
2022/05/13 06:50:10;;;;;;;3.62;0.60;;;;;;;17.00;46.56;100322.02;1760722;80;21444;-77
2022/05/13 06:52:38;;;;;;;2.17;0.45;;;;;;;17.08;46.63;100315.36;1774389;80;21482;-77
2022/05/13 06:55:05;;;;;;;2.52;0.45;;;;;;;17.16;46.41;100312.66;1770223;80;21016;-77
2022/05/13 06:57:33;;;;;;;2.05;0.55;;;;;;;17.28;46.31;100312.37;1785133;80;20925;-78
2022/05/13 07:00:01;;;;;;;1.02;0.60;;;;;;;17.38;46.35;100317.03;1784213;80;21924;-76
2022/05/13 07:02:29;;;;;;;0.72;0.50;;;;;;;17.49;45.74;100318.53;1764403;80;20925;-78
2022/05/13 07:04:57;;;;;;;2.92;0.47;;;;;;;17.53;45.17;100318.02;1763829;80;21051;-76
2022/05/13 07:07:27;;;;;;;3.10;0.70;;;;;;;17.56;45.26;100320.34;1764180;80;21009;-77
2022/05/13 07:09:55;;;;;;;1.65;0.60;;;;;;;17.65;45.67;100319.33;1763094;80;21486;-77
2022/05/13 07:12:23;;;;;;;2.08;0.70;;;;;;;17.71;44.21;100315.20;1749090;80;21800;-78
2022/05/13 07:14:50;;;;;;;2.08;0.70;;;;;;;17.72;44.81;100309.67;1781014;80;20964;-84
2022/05/13 07:17:20;;;;;;;5.03;0.60;;;;;;;17.81;45.30;100312.34;1780425;80;20956;-83
2022/05/13 07:19:49;;;;;;;1.17;0.50;;;;;;;17.98;45.70;100317.48;1794075;79;20991;-78
2022/05/13 07:22:18;;;;;;;3.02;0.65;;;;;;;18.14;44.57;100317.09;1785356;79;20906;-76
2022/05/13 07:24:45;;;;;;;4.60;0.70;;;;;;;18.23;43.48;100324.07;1774764;79;22223;-76
2022/05/13 07:27:12;;;;;;;1.00;0.57;;;;;;;18.28;42.55;100326.57;1785605;80;20957;-77
2022/05/13 07:29:42;;;;;;;2.12;0.55;;;;;;;18.31;41.94;100323.55;1749227;80;33136;-76
2022/05/13 07:32:10;;;;;;;2.40;0.60;;;;;;;18.29;42.19;100320.72;1784588;80;20988;-79
2022/05/13 07:34:39;;;;;;;2.50;0.62;;;;;;;18.31;42.22;100318.20;1787704;79;21422;-80
2022/05/13 07:37:07;;;;;;;1.25;0.70;;;;;;;18.33;42.31;100323.37;1786236;79;21934;-78
2022/05/13 07:42:21;;;;;;;3.72;1.00;;;;;;;18.37;42.83;100328.72;1780853;79;20968;-77
2022/05/13 07:44:48;;;;;;;1.90;0.80;;;;;;;18.39;42.08;100326.70;1784064;80;20973;-83
2022/05/13 07:47:16;;;;;;;1.85;0.60;;;;;;;18.41;41.48;100334.03;1781822;80;20944;-80
2022/05/13 07:49:43;;;;;;;2.55;0.62;;;;;;;18.42;40.79;100328.18;1784865;79;22606;-85
2022/05/13 07:52:10;;;;;;;1.82;0.72;;;;;;;18.51;40.83;100323.12;1778402;79;21000;-74
2022/05/13 07:54:37;;;;;;;4.75;0.88;;;;;;;18.63;39.19;100321.75;1772838;79;21347;-74
2022/05/13 07:57:06;;;;;;;0.90;0.60;;;;;;;18.72;39.38;100321.20;1778852;78;21053;-75
2022/05/13 08:00:24;;;;;;;1.85;0.70;;;;;;;18.81;39.49;100329.52;1761979;79;20928;-75
2022/05/13 08:02:04;;;;;;;5.97;0.72;;;;;;;18.90;40.22;100319.09;1782798;79;22581;-77
2022/05/13 08:04:31;;;;;;;1.27;0.70;;;;;;;19.01;39.19;100321.39;1765157;79;21323;-73
2022/05/13 08:06:58;;;;;;;2.25;0.60;;;;;;;19.02;38.32;100314.20;1755863;80;20971;-77
2022/05/13 08:09:26;;;;;;;2.37;0.70;;;;;;;18.92;38.71;100313.09;1766221;79;20948;-76
2022/05/13 08:11:54;;;;;;;1.55;0.62;;;;;;;18.96;39.05;100309.03;1763885;79;20952;-79
2022/05/13 08:14:22;;;;;;;0.93;0.70;;;;;;;19.05;38.65;100302.61;1732805;80;21894;-79
2022/05/13 08:16:50;;;;;;;3.98;0.80;;;;;;;19.14;38.08;100313.59;1754416;80;21060;-76
2022/05/13 08:19:17;;;;;;;2.85;0.75;;;;;;;19.19;38.58;100292.13;1749868;80;21035;-79
2022/05/13 08:21:44;;;;;;;3.75;0.80;;;;;;;19.26;39.06;100289.89;1773985;79;21032;-73
2022/05/13 08:24:11;;;;;;;1.42;0.70;;;;;;;19.38;38.61;100295.65;1779978;78;20923;-77
2022/05/13 08:26:38;;;;;;;4.03;0.80;;;;;;;19.53;37.35;100302.39;1786133;78;23061;-74
2022/05/13 08:29:05;;;;;;;1.45;0.70;;;;;;;19.53;36.87;100294.36;1783181;78;20986;-78
2022/05/13 08:31:32;;;;;;;3.90;0.80;;;;;;;19.52;37.40;100288.17;1781636;78;21024;-75
2022/05/13 08:34:00;;;;;;;2.67;0.80;;;;;;;19.58;37.25;100286.11;1753324;80;21053;-73
2022/05/13 08:36:27;;;;;;;6.15;2.65;;;;;;;19.68;36.64;100276.47;1757300;80;21052;-74
2022/05/13 08:38:54;;;;;;;2.22;0.75;;;;;;;19.74;37.13;100290.48;1739167;80;21802;-73
2022/05/13 08:42:04;;;;;;;5.37;0.62;;;;;;;19.87;36.89;100296.03;1747987;80;21015;-74
2022/05/13 08:44:32;;;;;;;1.52;0.68;;;;;;;19.87;35.50;100304.08;1771726;79;21040;-77
2022/05/13 08:47:14;;;;;;;0.78;0.50;;;;;;;19.82;35.67;100294.94;1757629;80;21075;-75
2022/05/13 08:49:54;;;;;;;1.72;0.60;;;;;;;19.79;36.23;100288.62;1760173;80;21500;-74
2022/05/13 08:53:09;;;;;;;2.02;0.80;;;;;;;19.84;37.55;100281.67;1749325;81;21974;-77
2022/05/13 08:55:47;;;;;;;0.78;0.55;;;;;;;20.10;37.32;100287.92;1765603;80;21506;-79
2022/05/13 08:58:29;;;;;;;3.30;0.68;;;;;;;20.34;37.08;100292.14;1751802;81;21041;-73
2022/05/13 09:00:58;;;;;;;2.95;0.65;;;;;;;20.43;35.85;100300.44;1735063;80;21688;-80
2022/05/13 09:03:37;;;;;;;2.15;0.62;;;;;;;20.50;36.04;100297.34;1736637;81;21000;-74
2022/05/13 09:06:07;;;;;;;3.17;0.60;;;;;;;20.55;36.33;100282.83;1748309;80;21959;-75
2022/05/13 09:08:34;;;;;;;3.20;0.55;;;;;;;20.61;36.39;100283.11;1754729;80;21035;-73
2022/05/13 09:11:30;;;;;;;1.95;0.80;;;;;;;20.71;36.18;100278.27;1774962;79;21479;-73
2022/05/13 09:14:24;;;;;;;5.03;0.80;;;;;;;20.81;36.03;100282.30;1771022;79;21692;-73
2022/05/13 09:17:18;;;;;;;4.85;0.80;;;;;;;20.82;35.76;100271.88;1741716;81;21072;-74
2022/05/13 09:20:06;;;;;;;4.97;0.80;;;;;;;20.82;35.78;100267.85;1744073;80;21974;-73
2022/05/13 09:22:51;;;;;;;2.27;0.75;;;;;;;20.82;35.62;100271.88;1733115;82;21030;-73
2022/05/13 09:25:25;;;;;;;2.83;0.78;;;;;;;20.88;36.82;100277.52;1758111;79;21091;-73
2022/05/13 09:28:03;;;;;;;1.75;0.70;;;;;;;21.09;36.46;100265.44;1757585;80;21033;-72
2022/05/13 09:30:42;;;;;;;1.65;0.57;;;;;;;21.29;35.92;100272.36;1745946;80;21003;-72
2022/05/13 09:33:37;;;;;;;3.35;0.60;;;;;;;21.48;36.71;100272.20;1740277;80;21800;-73
2022/05/13 09:36:09;;;;;;;4.25;0.62;;;;;;;21.63;35.86;100263.02;1750677;80;21528;-73
2022/05/13 09:38:53;;;;;;;4.15;0.70;;;;;;;21.82;36.15;100262.00;1770864;80;21013;-72
2022/05/13 09:41:29;;;;;;;;;;;;;;;21.96;35.54;100261.04;1759565;79;21052;-75
2022/05/13 09:43:59;;;;;;;3.60;0.80;;;;;;;22.11;35.46;100253.71;1773305;80;20203;-75
2022/05/13 09:46:44;;;;;;;2.70;0.70;;;;;;;22.20;35.38;100249.83;1713271;81;21892;-76
2022/05/13 09:49:22;;;;;;;2.65;0.70;;;;;;;22.23;34.92;100256.66;1731255;80;21032;-73
2022/05/13 09:52:26;;;;;;;2.95;0.50;;;;;;;22.25;34.77;100243.83;1743562;80;21035;-73
2022/05/13 09:54:53;;;;;;;6.65;0.80;;;;;;;22.31;35.07;100252.97;1734040;81;21063;-75
2022/05/13 09:57:31;;;;;;;3.40;0.85;;;;;;;22.47;35.96;100242.66;1761568;79;21021;-73
2022/05/13 10:00:15;;;;;;;2.27;0.88;;;;;;;22.69;34.71;100240.66;1762046;79;23246;-75
2022/05/13 10:02:47;;;;;;;1.10;0.62;;;;;;;22.81;34.80;100239.02;1763616;79;21035;-76
2022/05/13 10:05:24;;;;;;;2.15;0.70;;;;;;;23.07;34.82;100234.73;1766585;79;24778;-77
2022/05/13 10:08:00;;;;;;;5.97;0.75;;;;;;;23.25;34.54;100230.88;1763897;79;22176;-74
2022/05/13 10:16:23;;;;;;;2.72;0.70;;;;;;;23.54;33.98;100244.44;1747455;80;21400;-73
2022/05/13 10:19:19;;;;;;;4.67;1.10;;;;;;;23.60;33.16;100252.25;1756802;79;21554;-78
2022/05/13 10:22:07;;;;;;;4.03;0.70;;;;;;;23.47;33.70;100254.42;1776448;79;21002;-79
2022/05/13 10:24:52;;;;;;;8.35;1.10;;;;;;;23.39;33.97;100258.16;1774698;79;21075;-80
2022/05/13 10:27:26;;;;;;;3.02;0.80;;;;;;;23.30;34.20;100254.01;1746778;80;22561;-79
2022/05/13 10:29:58;;;;;;;4.90;0.90;;;;;;;23.28;34.20;100249.88;1760354;80;20989;-80
2022/05/13 10:32:35;;;;;;;4.72;0.98;;;;;;;23.17;34.53;100250.50;1748210;80;21462;-82
2022/05/13 10:35:05;;;;;;;5.62;1.05;;;;;;;23.13;34.06;100248.20;1758500;79;21000;-80
2022/05/13 10:38:31;;;;;;;3.95;0.80;;;;;;;23.00;34.20;100233.90;1771963;79;21024;-78
2022/05/13 10:41:19;;;;;;;3.67;1.00;;;;;;;23.00;35.08;100227.16;1756145;80;21941;-78
2022/05/13 10:43:59;;;;;;;4.12;0.90;;;;;;;23.19;34.50;100242.51;1761966;80;21040;-77
2022/05/13 10:46:33;;;;;;;2.90;0.88;;;;;;;23.20;34.19;100239.30;1754303;80;21065;-76
2022/05/13 10:49:01;;;;;;;5.58;1.10;;;;;;;23.09;34.65;100236.70;1787412;80;21295;-77
2022/05/13 10:51:40;;;;;;;5.03;1.00;;;;;;;23.05;34.49;100231.40;1788183;80;20970;-78
2022/05/13 10:54:28;;;;;;;1.90;0.75;;;;;;;22.99;34.70;100227.69;1769254;80;22376;-78
2022/05/13 10:57:26;;;;;;;2.52;1.10;;;;;;;22.96;34.49;100219.17;1759905;81;21087;-78
2022/05/13 11:00:09;;;;;;;3.10;1.10;;;;;;;23.06;34.84;100217.72;1771136;80;21031;-81
2022/05/13 11:02:57;;;;;;;3.95;1.32;;;;;;;23.04;34.87;100220.31;1671657;80;21247;-80
2022/05/13 11:05:52;;;;;;;3.77;1.07;;;;;;;22.85;35.24;100229.52;1773984;80;21489;-78
2022/05/13 11:08:25;;;;;;;;;;;;;;;22.79;35.87;100223.59;1768882;79;22340;-78
2022/05/13 11:11:07;;;;;;;4.80;1.10;;;;;;;22.83;35.73;100215.92;1770422;80;20240;-77
2022/05/13 11:14:00;;;;;;;4.10;1.15;;;;;;;22.89;35.80;100218.36;1786627;80;20956;-80
2022/05/13 11:16:58;;;;;;;2.75;1.10;;;;;;;22.82;35.54;100215.09;1789033;78;21055;-77
2022/05/13 11:19:36;;;;;;;5.35;1.20;;;;;;;22.78;36.67;100212.52;1794536;78;21079;-81
2022/05/13 11:22:11;;;;;;;4.55;1.25;;;;;;;22.89;36.77;100207.06;1782075;79;22801;-82
2022/05/13 11:28:20;;;;;;;3.08;1.20;;;;;;;22.88;36.25;100198.68;1771780;79;21050;-72
2022/05/13 11:31:02;;;;;;;6.53;1.30;;;;;;;23.00;36.69;100194.33;1774955;79;21548;-73
2022/05/13 11:33:56;;;;;;;5.17;1.10;;;;;;;23.23;37.17;100197.10;1761037;78;20983;-74
2022/05/13 11:36:37;;;;;;;6.33;1.17;;;;;;;23.43;36.04;100189.30;1788401;78;21901;-76
2022/05/13 11:39:10;;;;;;;3.10;1.30;;;;;;;23.53;35.32;100179.95;1755938;81;21036;-75
2022/05/13 11:41:57;;;;;;;3.20;1.40;;;;;;;23.60;35.76;100186.20;1744566;80;21021;-76
2022/05/13 11:44:32;;;;;;;3.47;1.30;;;;;;;23.88;34.90;100181.86;1757647;80;21064;-74
2022/05/13 11:47:22;;;;;;;3.02;1.10;;;;;;;24.18;35.26;100180.27;1755235;80;21471;-76
2022/05/13 11:49:49;;;;;;;2.27;1.20;;;;;;;24.43;34.19;100180.91;1768103;79;22644;-75
2022/05/13 11:52:36;;;;;;;4.37;1.20;;;;;;;24.43;33.69;100183.61;1785674;80;21103;-77
2022/05/13 11:55:22;;;;;;;3.65;1.10;;;;;;;24.39;34.09;100189.12;1783064;79;21577;-76
2022/05/13 11:57:54;;;;;;;4.58;1.20;;;;;;;24.35;34.20;100175.76;1786352;78;21024;-77
2022/05/13 12:00:29;;;;;;;6.58;1.40;;;;;;;24.40;33.39;100183.50;1760362;80;21020;-77
2022/05/13 12:03:05;;;;;;;6.08;1.30;;;;;;;24.26;33.72;100178.67;1775348;78;21818;-77
2022/05/13 12:05:50;;;;;;;3.87;1.10;;;;;;;24.13;34.48;100178.75;1776086;78;22180;-75
2022/05/13 12:08:39;;;;;;;6.92;1.12;;;;;;;24.09;33.94;100182.08;1786111;80;21018;-81
2022/05/13 12:11:54;;;;;;;3.83;1.20;;;;;;;24.07;34.14;100185.52;1767666;79;21039;-77
2022/05/13 12:14:42;;;;;;;6.78;1.15;;;;;;;24.01;34.13;100179.63;1794630;78;21019;-79